Melfort, Canada
Current Conditions -  °F | °C
As of 6:00 AM on Friday 28 Nov 2014 (Local Time) from CYBU Reporting Station
Light Snow Light Snow  
Wind Chill: -24°   Ceiling: 5000
Heat Index: -4°   Visibility: 8mi
Dew Point: -8°   Wind: 14mph
Humidity: 85%   Direction: 20°NNE
Pressure: 30.05"   Gusts: NA
Location:  52.86°N, 104.62°W
Report Text: CYBU 281200Z AUTO 02012KT 8SM -SN OVC050 M20/M22 A3005 RMK SLP216
Loading
Personal Weather Stations






























Interactive Weather Map New forecast layout! Learn more

10-Day Weather Forecast

Advertisements
Track Severe Weather on mobile